createdAt,value
2023-04-20T00:02:22.391Z,100554.00
2023-04-20T00:04:49.985Z,100550.00
2023-04-20T00:07:18.810Z,100550.00
2023-04-20T00:09:46.175Z,100547.00
2023-04-20T00:12:13.440Z,100555.00
2023-04-20T00:14:40.760Z,100555.00
2023-04-20T00:17:08.175Z,100540.00
2023-04-20T00:19:35.838Z,100546.00
2023-04-20T00:22:03.157Z,100541.00
2023-04-20T00:24:32.665Z,100547.00
2023-04-20T00:27:00.166Z,100541.00
2023-04-20T00:29:27.506Z,100540.00
2023-04-20T00:31:54.952Z,100543.00
2023-04-20T00:34:22.280Z,100544.00
2023-04-20T00:36:49.962Z,100534.00
2023-04-20T00:39:17.457Z,100547.00
2023-04-20T00:41:47.111Z,100541.00
2023-04-20T00:44:14.395Z,100543.00
2023-04-20T00:46:41.971Z,100540.00
2023-04-20T00:49:10.127Z,100538.00
2023-04-20T00:51:37.752Z,100542.00
2023-04-20T00:54:05.751Z,100546.00
2023-04-20T00:56:33.400Z,100534.00
2023-04-20T00:59:08.358Z,100531.00
2023-04-20T01:01:35.748Z,100529.00
2023-04-20T01:04:03.483Z,100532.00
2023-04-20T01:06:32.365Z,100531.00
2023-04-20T01:08:59.681Z,100532.00
2023-04-20T01:11:27.223Z,100530.00
2023-04-20T01:13:54.646Z,100529.00
2023-04-20T01:16:22.791Z,100536.00
2023-04-20T01:18:52.122Z,100530.00
2023-04-20T01:21:21.526Z,100528.00
2023-04-20T01:23:50.131Z,100524.00
2023-04-20T01:26:19.475Z,100525.00
2023-04-20T01:28:47.246Z,100532.00
2023-04-20T01:31:14.613Z,100524.00
2023-04-20T01:33:41.927Z,100517.00
2023-04-20T01:36:09.979Z,100525.00
2023-04-20T01:38:37.944Z,100518.00
2023-04-20T01:41:10.611Z,100514.00
2023-04-20T01:43:39.044Z,100519.00
2023-04-20T01:46:07.023Z,100513.00
2023-04-20T01:48:34.977Z,100506.00
2023-04-20T01:51:02.354Z,100525.00
2023-04-20T01:53:29.661Z,100517.00
2023-04-20T01:55:58.119Z,100514.00
2023-04-20T01:58:26.253Z,100519.00
2023-04-20T02:00:53.616Z,100509.00
2023-04-20T02:03:21.247Z,100506.00
2023-04-20T02:05:48.649Z,100500.00
2023-04-20T02:08:16.012Z,100504.00
2023-04-20T02:10:43.273Z,100506.00
2023-04-20T02:13:11.056Z,100516.00
2023-04-20T02:15:39.070Z,100513.00
2023-04-20T02:18:06.461Z,100510.00
2023-04-20T02:20:34.020Z,100500.00
2023-04-20T02:23:01.431Z,100512.00
2023-04-20T02:25:29.874Z,100508.00
2023-04-20T02:27:57.232Z,100507.00
2023-04-20T02:30:24.789Z,100516.00
2023-04-20T02:32:52.818Z,100517.00
2023-04-20T02:35:20.680Z,100516.00
2023-04-20T02:37:50.104Z,100521.00
2023-04-20T02:40:17.458Z,100518.00
2023-04-20T02:42:44.790Z,100516.00
2023-04-20T02:45:12.431Z,100521.00
2023-04-20T02:47:39.790Z,100529.00
2023-04-20T02:50:08.962Z,100520.00
2023-04-20T02:52:36.299Z,100521.00
2023-04-20T02:55:03.968Z,100522.00
2023-04-20T02:57:31.281Z,100515.00
2023-04-20T02:59:58.602Z,100518.00
2023-04-20T03:02:26.055Z,100518.00
2023-04-20T03:04:53.598Z,100512.00
2023-04-20T03:07:21.936Z,100521.00
2023-04-20T03:09:49.245Z,100518.00
2023-04-20T03:12:17.736Z,100525.00
2023-04-20T03:14:45.469Z,100522.00
2023-04-20T03:17:13.005Z,100531.00
2023-04-20T03:19:40.884Z,100525.00
2023-04-20T03:22:08.178Z,100520.00
2023-04-20T03:24:36.195Z,100527.00
2023-04-20T03:27:03.622Z,100526.00
2023-04-20T03:29:30.943Z,100523.00
2023-04-20T03:31:58.309Z,100544.00
2023-04-20T03:34:26.065Z,100544.00
2023-04-20T03:36:53.430Z,100533.00
2023-04-20T03:39:20.768Z,100542.00
2023-04-20T03:41:48.814Z,100547.00
2023-04-20T03:44:16.175Z,100546.00
2023-04-20T03:46:43.546Z,100555.00
2023-04-20T03:49:10.866Z,100556.00
2023-04-20T03:51:38.191Z,100551.00
2023-04-20T03:54:05.904Z,100550.00
2023-04-20T03:56:33.229Z,100552.00
2023-04-20T03:59:01.222Z,100547.00
2023-04-20T04:01:28.835Z,100552.00
2023-04-20T04:03:56.353Z,100549.00
2023-04-20T04:06:25.135Z,100557.00
2023-04-20T04:08:52.547Z,100559.00
2023-04-20T04:11:20.214Z,100543.00
2023-04-20T04:13:47.720Z,100547.00
2023-04-20T04:16:15.688Z,100541.00
2023-04-20T04:18:44.373Z,100539.00
2023-04-20T04:21:11.863Z,100537.00
2023-04-20T04:23:40.507Z,100541.00
2023-04-20T04:26:07.977Z,100552.00
2023-04-20T04:28:35.314Z,100550.00
2023-04-20T04:31:05.225Z,100555.00
2023-04-20T04:33:33.477Z,100566.00
2023-04-20T04:36:01.197Z,100558.00
2023-04-20T04:38:28.502Z,100559.00
2023-04-20T04:40:56.655Z,100564.00
2023-04-20T04:43:24.948Z,100565.00
2023-04-20T04:45:52.836Z,100565.00
2023-04-20T04:48:20.117Z,100575.00
2023-04-20T04:50:48.243Z,100571.00
2023-04-20T04:53:15.615Z,100573.00
2023-04-20T04:55:42.869Z,100563.00
2023-04-20T04:58:10.098Z,100581.00
2023-04-20T05:00:37.550Z,100574.00
2023-04-20T05:03:05.505Z,100567.00
2023-04-20T05:05:32.874Z,100580.00
2023-04-20T05:08:02.541Z,100590.00
2023-04-20T05:10:30.030Z,100583.00
2023-04-20T05:13:00.902Z,100588.00
2023-04-20T05:16:08.892Z,100590.00
2023-04-20T05:21:38.636Z,100598.00
2023-04-20T05:24:07.126Z,100592.00
2023-04-20T05:26:42.277Z,100595.00
2023-04-20T05:34:27.991Z,100615.00
2023-04-20T05:45:02.918Z,100617.00
2023-04-20T05:47:47.808Z,100622.00
2023-04-20T05:50:18.024Z,100625.00
2023-04-20T05:53:46.363Z,100620.00
2023-04-20T05:59:09.177Z,100634.00
2023-04-20T06:01:37.394Z,100630.00
2023-04-20T06:04:04.863Z,100631.00
2023-04-20T06:06:32.309Z,100620.00
2023-04-20T06:08:59.685Z,100635.00
2023-04-20T06:11:26.919Z,100634.00
2023-04-20T06:13:54.232Z,100640.00
2023-04-20T06:16:21.598Z,100626.00
2023-04-20T06:18:49.844Z,100632.00
2023-04-20T06:21:17.422Z,100631.00
2023-04-20T06:23:44.980Z,100627.00
2023-04-20T06:26:12.324Z,100626.00
2023-04-20T06:28:39.635Z,100623.00
2023-04-20T06:31:12.105Z,100624.00
2023-04-20T06:33:40.148Z,100625.00
2023-04-20T06:36:08.438Z,100616.00
2023-04-20T06:38:36.037Z,100618.00
2023-04-20T06:41:03.542Z,100621.00
2023-04-20T06:43:31.102Z,100620.00
2023-04-20T06:45:58.402Z,100616.00
2023-04-20T06:48:31.975Z,100613.00
2023-04-20T06:51:00.579Z,100624.00
2023-04-20T06:53:28.567Z,100619.00
2023-04-20T06:55:56.141Z,100636.00
2023-04-20T06:58:23.530Z,100624.00
2023-04-20T07:00:50.848Z,100627.00
2023-04-20T07:03:18.512Z,100627.00
2023-04-20T07:05:45.932Z,100644.00
2023-04-20T07:08:14.902Z,100631.00
2023-04-20T07:10:42.841Z,100630.00
2023-04-20T07:13:10.116Z,100631.00
2023-04-20T07:15:37.334Z,100626.00
2023-04-20T07:18:04.804Z,100629.00
2023-04-20T07:20:32.321Z,100625.00
2023-04-20T07:22:59.624Z,100633.00
2023-04-20T07:25:27.147Z,100637.00
2023-04-20T07:27:55.126Z,100631.00
2023-04-20T07:30:22.557Z,100640.00
2023-04-20T07:32:50.266Z,100642.00
2023-04-20T07:35:17.589Z,100643.00
2023-04-20T07:37:44.820Z,100649.00
2023-04-20T07:40:12.338Z,100650.00
2023-04-20T07:42:39.737Z,100642.00
2023-04-20T07:45:09.671Z,100638.00
2023-04-20T07:47:37.533Z,100644.00
2023-04-20T07:50:05.653Z,100648.00
2023-04-20T07:52:33.053Z,100643.00
2023-04-20T07:55:00.469Z,100631.00
2023-04-20T07:57:29.367Z,100642.00
2023-04-20T07:59:56.684Z,100639.00
2023-04-20T08:02:24.837Z,100642.00
2023-04-20T08:04:52.453Z,100645.00
2023-04-20T08:07:20.135Z,100653.00
2023-04-20T08:09:47.443Z,100641.00
2023-04-20T08:12:14.730Z,100653.00
2023-04-20T08:14:42.233Z,100655.00
2023-04-20T08:17:09.482Z,100652.00
2023-04-20T08:19:37.458Z,100646.00
2023-04-20T08:22:06.319Z,100646.00
2023-04-20T08:24:33.760Z,100643.00
2023-04-20T08:27:01.091Z,100644.00
2023-04-20T08:29:28.536Z,100643.00
2023-04-20T08:31:56.114Z,100642.00
2023-04-20T08:34:23.500Z,100637.00
2023-04-20T08:36:51.543Z,100630.00
2023-04-20T08:39:20.972Z,100630.00
2023-04-20T08:41:52.986Z,100626.00
2023-04-20T08:44:20.533Z,100626.00
2023-04-20T08:46:49.217Z,100626.00
2023-04-20T08:49:18.139Z,100635.00
2023-04-20T08:51:46.564Z,100636.00
2023-04-20T08:54:15.001Z,100626.00
2023-04-20T08:56:44.304Z,100629.00
2023-04-20T08:59:13.507Z,100634.00
2023-04-20T09:01:41.733Z,100632.00
2023-04-20T09:04:19.513Z,100634.00
2023-04-20T09:06:49.467Z,100647.00
2023-04-20T09:09:20.112Z,100641.00
2023-04-20T09:11:48.514Z,100639.00
2023-04-20T09:14:17.562Z,100655.00
2023-04-20T09:16:52.247Z,100654.00
2023-04-20T09:19:23.637Z,100652.00
2023-04-20T09:21:52.781Z,100653.00
2023-04-20T09:24:21.711Z,100649.00
2023-04-20T09:26:49.443Z,100650.00
2023-04-20T09:29:18.135Z,100653.00
2023-04-20T09:31:45.596Z,100650.00
2023-04-20T09:34:13.444Z,100652.00
2023-04-20T09:36:42.052Z,100647.00
2023-04-20T09:39:11.460Z,100647.00
2023-04-20T09:41:41.073Z,100646.00
2023-04-20T09:44:09.486Z,100641.00
2023-04-20T09:46:38.778Z,100648.00
2023-04-20T09:49:07.671Z,100641.00
2023-04-20T09:51:36.762Z,100645.00
2023-04-20T09:54:05.648Z,100642.00
2023-04-20T09:56:34.331Z,100638.00
2023-04-20T09:59:03.357Z,100632.00
2023-04-20T10:01:32.765Z,100640.00
2023-04-20T10:04:01.701Z,100623.00
2023-04-20T10:06:32.154Z,100623.00
2023-04-20T10:09:01.141Z,100622.00
2023-04-20T10:11:40.662Z,100623.00
2023-04-20T10:14:19.214Z,100628.00
2023-04-20T10:16:58.203Z,100623.00
2023-04-20T10:19:35.791Z,100635.00
2023-04-20T10:22:03.514Z,100629.00
2023-04-20T10:24:31.854Z,100631.00
2023-04-20T10:26:59.641Z,100634.00
2023-04-20T10:29:28.522Z,100634.00
2023-04-20T10:31:56.309Z,100626.00
2023-04-20T10:34:34.391Z,100625.00
2023-04-20T10:37:09.221Z,100617.00
2023-04-20T10:39:37.437Z,100620.00
2023-04-20T10:42:04.755Z,100610.00
2023-04-20T10:44:34.654Z,100608.00
2023-04-20T10:47:02.107Z,100610.00
2023-04-20T10:49:31.104Z,100607.00
2023-04-20T10:51:58.492Z,100618.00
2023-04-20T10:54:26.381Z,100604.00
2023-04-20T10:56:54.136Z,100614.00
2023-04-20T10:59:23.130Z,100604.00
2023-04-20T11:01:51.873Z,100603.00
2023-04-20T11:04:28.861Z,100603.00
2023-04-20T11:07:03.983Z,100606.00
2023-04-20T11:09:33.191Z,100597.00
2023-04-20T11:12:01.664Z,100602.00
2023-04-20T11:14:29.811Z,100602.00
2023-04-20T11:16:57.880Z,100606.00
2023-04-20T11:19:27.036Z,100600.00
2023-04-20T11:21:54.549Z,100593.00
2023-04-20T11:24:23.106Z,100596.00
2023-04-20T11:26:52.689Z,100594.00
2023-04-20T11:29:31.259Z,100593.00
2023-04-20T11:32:00.896Z,100597.00
2023-04-20T11:34:28.571Z,100595.00
2023-04-20T11:36:56.019Z,100592.00
2023-04-20T11:39:24.193Z,100590.00
2023-04-20T11:41:51.859Z,100579.00
2023-04-20T11:44:20.490Z,100586.00
2023-04-20T11:46:48.621Z,100582.00
2023-04-20T11:49:17.335Z,100579.00
2023-04-20T11:51:45.711Z,100570.00
2023-04-20T11:54:13.308Z,100569.00
2023-04-20T11:56:42.488Z,100576.00
2023-04-20T11:59:10.470Z,100561.00
2023-04-20T12:01:37.990Z,100561.00
2023-04-20T12:04:05.776Z,100573.00
2023-04-20T12:06:34.047Z,100564.00
2023-04-20T12:09:01.720Z,100564.00
2023-04-20T12:11:29.056Z,100572.00
2023-04-20T12:13:56.343Z,100574.00
2023-04-20T12:16:23.699Z,100560.00
2023-04-20T12:18:51.066Z,100562.00
2023-04-20T12:21:18.352Z,100566.00
2023-04-20T12:23:48.457Z,100572.00
2023-04-20T12:26:16.022Z,100575.00
2023-04-20T12:28:44.496Z,100557.00
2023-04-20T12:31:11.952Z,100564.00
2023-04-20T12:33:39.324Z,100575.00
2023-04-20T12:36:06.997Z,100555.00
2023-04-20T12:38:34.368Z,100559.00
2023-04-20T12:41:03.533Z,100558.00
2023-04-20T12:43:31.194Z,100549.00
2023-04-20T12:45:58.517Z,100545.00
2023-04-20T12:48:26.171Z,100553.00
2023-04-20T12:50:53.499Z,100545.00
2023-04-20T12:53:20.808Z,100552.00
2023-04-20T12:55:49.547Z,100536.00
2023-04-20T12:58:21.014Z,100536.00
2023-04-20T13:00:48.374Z,100531.00
2023-04-20T13:03:16.241Z,100529.00
2023-04-20T13:05:43.995Z,100535.00
2023-04-20T13:08:11.387Z,100529.00
2023-04-20T13:10:41.308Z,100524.00
2023-04-20T13:13:08.931Z,100520.00
2023-04-20T13:15:39.157Z,100521.00
2023-04-20T13:18:07.094Z,100517.00
2023-04-20T13:20:34.449Z,100514.00
2023-04-20T13:23:03.177Z,100515.00
2023-04-20T13:25:32.702Z,100512.00
2023-04-20T13:28:01.084Z,100518.00
2023-04-20T13:30:28.572Z,100512.00
2023-04-20T13:32:56.717Z,100513.00
2023-04-20T13:35:24.500Z,100514.00
2023-04-20T13:37:51.878Z,100511.00
2023-04-20T13:40:19.228Z,100514.00
2023-04-20T13:42:46.546Z,100511.00
2023-04-20T13:45:13.874Z,100514.00
2023-04-20T13:47:41.313Z,100518.00
2023-04-20T13:50:10.356Z,100519.00
2023-04-20T13:52:37.972Z,100524.00
2023-04-20T13:55:05.794Z,100514.00
2023-04-20T13:57:33.098Z,100510.00
2023-04-20T14:00:01.206Z,100520.00
2023-04-20T14:02:29.056Z,100515.00
2023-04-20T14:04:56.491Z,100514.00
2023-04-20T14:07:24.569Z,100504.00
2023-04-20T14:09:55.610Z,100509.00
2023-04-20T14:12:23.055Z,100499.00
2023-04-20T14:14:50.651Z,100495.00
2023-04-20T14:17:18.019Z,100491.00
2023-04-20T14:19:45.386Z,100486.00
2023-04-20T14:22:12.688Z,100483.00
2023-04-20T14:24:40.639Z,100476.00
2023-04-20T14:27:08.015Z,100477.00
2023-04-20T14:29:35.364Z,100474.00
2023-04-20T14:32:02.623Z,100468.00
2023-04-20T14:34:29.931Z,100472.00
2023-04-20T14:36:57.211Z,100456.00
2023-04-20T14:39:24.459Z,100462.00
2023-04-20T14:41:52.674Z,100452.00
2023-04-20T14:44:20.186Z,100444.00
2023-04-20T14:46:47.844Z,100449.00
2023-04-20T14:49:15.196Z,100444.00
2023-04-20T14:51:42.520Z,100440.00
2023-04-20T14:54:10.292Z,100440.00
2023-04-20T14:56:37.594Z,100437.00
2023-04-20T14:59:05.561Z,100443.00
2023-04-20T15:01:33.287Z,100438.00
2023-04-20T15:04:00.817Z,100432.00
2023-04-20T15:06:28.485Z,100438.00
2023-04-20T15:08:56.151Z,100432.00
2023-04-20T15:11:23.690Z,100432.00
2023-04-20T15:13:51.968Z,100437.00
2023-04-20T15:16:20.139Z,100431.00
2023-04-20T15:18:48.730Z,100429.00
2023-04-20T15:21:15.984Z,100421.00
2023-04-20T15:23:43.209Z,100425.00
2023-04-20T15:26:10.476Z,100406.00
2023-04-20T15:28:37.792Z,100405.00
2023-04-20T15:31:07.240Z,100414.00
2023-04-20T15:33:35.231Z,100413.00
2023-04-20T15:36:02.693Z,100407.00
2023-04-20T15:38:30.006Z,100410.00
2023-04-20T15:40:58.094Z,100399.00
2023-04-20T15:43:25.387Z,100402.00
2023-04-20T15:45:52.799Z,100401.00
2023-04-20T15:48:20.267Z,100395.00
2023-04-20T15:50:51.925Z,100386.00
2023-04-20T15:53:19.345Z,100385.00
2023-04-20T15:55:46.787Z,100380.00
2023-04-20T15:58:14.074Z,100384.00
2023-04-20T16:00:41.649Z,100374.00
2023-04-20T16:03:09.239Z,100375.00
2023-04-20T16:05:36.864Z,100369.00
2023-04-20T16:08:05.192Z,100374.00
2023-04-20T16:10:32.511Z,100368.00
2023-04-20T16:12:59.787Z,100374.00
2023-04-20T16:15:27.136Z,100369.00
2023-04-20T16:17:54.533Z,100374.00
2023-04-20T16:20:22.032Z,100364.00
2023-04-20T16:22:49.389Z,100364.00
2023-04-20T16:25:21.876Z,100373.00
2023-04-20T16:27:49.696Z,100358.00
2023-04-20T16:30:17.193Z,100364.00
2023-04-20T16:32:44.560Z,100363.00
2023-04-20T16:35:11.889Z,100377.00
2023-04-20T16:37:39.235Z,100375.00
2023-04-20T16:40:09.158Z,100376.00
2023-04-20T16:42:37.211Z,100384.00
2023-04-20T16:45:05.738Z,100373.00
2023-04-20T16:47:33.125Z,100376.00
2023-04-20T16:50:00.555Z,100374.00
2023-04-20T16:52:27.885Z,100374.00
2023-04-20T16:54:55.271Z,100381.00
2023-04-20T16:57:22.577Z,100371.00
2023-04-20T16:59:50.530Z,100371.00
2023-04-20T17:02:17.970Z,100371.00
2023-04-20T17:04:45.270Z,100372.00
2023-04-20T17:07:13.022Z,100361.00
2023-04-20T17:09:40.409Z,100362.00
2023-04-20T17:12:07.930Z,100371.00
2023-04-20T17:14:36.457Z,100364.00
2023-04-20T17:17:04.474Z,100373.00
2023-04-20T17:19:31.760Z,100362.00
2023-04-20T17:21:59.120Z,100368.00
2023-04-20T17:24:26.473Z,100372.00
2023-04-20T17:26:53.742Z,100372.00
2023-04-20T17:29:21.016Z,100376.00
2023-04-20T17:31:48.302Z,100364.00
2023-04-20T17:34:18.268Z,100362.00
2023-04-20T17:36:56.342Z,100379.00
2023-04-20T17:39:23.735Z,100373.00
2023-04-20T17:41:51.280Z,100370.00
2023-04-20T17:44:18.744Z,100368.00
2023-04-20T17:46:46.274Z,100363.00
2023-04-20T17:49:13.624Z,100369.00
2023-04-20T17:51:41.684Z,100368.00
2023-04-20T17:54:09.046Z,100362.00
2023-04-20T17:56:36.307Z,100368.00
2023-04-20T17:59:04.391Z,100363.00
2023-04-20T18:01:33.996Z,100367.00
2023-04-20T18:04:01.629Z,100366.00
2023-04-20T18:06:29.390Z,100358.00
2023-04-20T18:08:57.549Z,100360.00
2023-04-20T18:11:24.910Z,100359.00
2023-04-20T18:13:52.398Z,100362.00
2023-04-20T18:16:20.019Z,100369.00
2023-04-20T18:18:47.401Z,100362.00
2023-04-20T18:21:14.776Z,100363.00
2023-04-20T18:23:42.081Z,100368.00
2023-04-20T18:26:16.400Z,100365.00
2023-04-20T18:28:43.987Z,100367.00
2023-04-20T18:31:17.556Z,100371.00
2023-04-20T18:33:44.861Z,100363.00
2023-04-20T18:36:12.209Z,100372.00
2023-04-20T18:38:39.975Z,100375.00
2023-04-20T18:41:07.638Z,100366.00
2023-04-20T18:43:35.897Z,100369.00
2023-04-20T18:46:03.244Z,100376.00
2023-04-20T18:48:30.596Z,100374.00
2023-04-20T18:51:01.008Z,100370.00
2023-04-20T18:53:28.940Z,100376.00
2023-04-20T18:55:58.453Z,100376.00
2023-04-20T18:58:25.880Z,100371.00
2023-04-20T19:00:53.918Z,100376.00
2023-04-20T19:03:21.583Z,100380.00
2023-04-20T19:05:49.052Z,100376.00
2023-04-20T19:08:16.497Z,100373.00
2023-04-20T19:10:43.791Z,100383.00
2023-04-20T19:13:11.182Z,100374.00
2023-04-20T19:15:39.866Z,100387.00
2023-04-20T19:18:08.003Z,100385.00
2023-04-20T19:20:36.055Z,100387.00
2023-04-20T19:23:03.363Z,100386.00
2023-04-20T19:25:31.298Z,100395.00
2023-04-20T19:27:59.348Z,100391.00
2023-04-20T19:30:26.664Z,100387.00
2023-04-20T19:32:54.052Z,100386.00
2023-04-20T19:35:22.127Z,100393.00
2023-04-20T19:37:49.427Z,100392.00
2023-04-20T19:40:18.943Z,100403.00
2023-04-20T19:42:47.853Z,100395.00
2023-04-20T19:45:15.330Z,100392.00
2023-04-20T19:47:42.616Z,100397.00
2023-04-20T19:50:10.666Z,100396.00
2023-04-20T19:52:38.662Z,100391.00
2023-04-20T19:55:06.919Z,100397.00
2023-04-20T19:57:34.244Z,100398.00
2023-04-20T20:00:01.803Z,100394.00
2023-04-20T20:02:29.223Z,100397.00
2023-04-20T20:04:56.526Z,100401.00
2023-04-20T20:07:25.453Z,100404.00
2023-04-20T20:09:53.442Z,100403.00
2023-04-20T20:12:20.787Z,100398.00
2023-04-20T20:14:48.087Z,100398.00
2023-04-20T20:17:15.507Z,100406.00
2023-04-20T20:19:42.783Z,100395.00
2023-04-20T20:22:10.306Z,100407.00
2023-04-20T20:24:37.567Z,100398.00
2023-04-20T20:27:05.858Z,100408.00
2023-04-20T20:29:33.123Z,100407.00
2023-04-20T20:32:00.431Z,100411.00
2023-04-20T20:34:27.711Z,100410.00
2023-04-20T20:36:54.983Z,100406.00
2023-04-20T20:39:22.846Z,100409.00
2023-04-20T20:41:50.680Z,100398.00
2023-04-20T20:44:19.887Z,100405.00
2023-04-20T20:46:47.215Z,100402.00
2023-04-20T20:49:14.631Z,100407.00
2023-04-20T20:51:42.183Z,100414.00
2023-04-20T20:54:09.927Z,100405.00
2023-04-20T20:56:37.202Z,100414.00
2023-04-20T20:59:04.422Z,100415.00
2023-04-20T21:01:32.527Z,100420.00
2023-04-20T21:04:00.564Z,100423.00
2023-04-20T21:06:27.988Z,100421.00
2023-04-20T21:08:55.456Z,100416.00
2023-04-20T21:11:22.884Z,100426.00
2023-04-20T21:13:50.247Z,100417.00
2023-04-20T21:16:17.559Z,100419.00
2023-04-20T21:18:45.576Z,100426.00
2023-04-20T21:21:12.911Z,100423.00
2023-04-20T21:23:40.220Z,100420.00
2023-04-20T21:26:07.536Z,100411.00
2023-04-20T21:28:34.936Z,100418.00
2023-04-20T21:31:02.704Z,100426.00
2023-04-20T21:33:30.149Z,100421.00
2023-04-20T21:35:59.046Z,100423.00
2023-04-20T21:38:26.455Z,100426.00
2023-04-20T21:40:53.739Z,100421.00
2023-04-20T21:43:21.019Z,100421.00
2023-04-20T21:45:50.119Z,100434.00
2023-04-20T21:48:17.514Z,100431.00
2023-04-20T21:50:44.823Z,100425.00
2023-04-20T21:53:12.861Z,100431.00
2023-04-20T21:55:40.136Z,100426.00
2023-04-20T21:58:07.481Z,100428.00
2023-04-20T22:00:34.880Z,100429.00
2023-04-20T22:03:02.340Z,100423.00
2023-04-20T22:05:29.795Z,100422.00
2023-04-20T22:07:57.242Z,100417.00
2023-04-20T22:10:25.719Z,100424.00
2023-04-20T22:12:53.103Z,100432.00
2023-04-20T22:15:21.576Z,100424.00
2023-04-20T22:17:49.059Z,100422.00
2023-04-20T22:20:18.635Z,100416.00
2023-04-20T22:22:46.598Z,100424.00
2023-04-20T22:25:13.894Z,100423.00
2023-04-20T22:27:41.950Z,100416.00
2023-04-20T22:30:09.884Z,100420.00
2023-04-20T22:32:37.798Z,100419.00
2023-04-20T22:35:05.606Z,100422.00
2023-04-20T22:37:32.886Z,100421.00
2023-04-20T22:40:00.253Z,100416.00
2023-04-20T22:42:27.616Z,100416.00
2023-04-20T22:44:55.549Z,100421.00
2023-04-20T22:47:22.875Z,100420.00
2023-04-20T22:49:51.220Z,100418.00
2023-04-20T22:52:18.647Z,100421.00
2023-04-20T22:54:47.434Z,100425.00
2023-04-20T22:57:14.895Z,100426.00
2023-04-20T22:59:42.185Z,100428.00
2023-04-20T23:02:10.355Z,100434.00
2023-04-20T23:04:38.565Z,100428.00
2023-04-20T23:07:06.253Z,100422.00
2023-04-20T23:09:33.512Z,100438.00
2023-04-20T23:12:02.711Z,100431.00
2023-04-20T23:14:29.988Z,100436.00
2023-04-20T23:16:59.275Z,100437.00
2023-04-20T23:19:27.648Z,100440.00
2023-04-20T23:21:55.079Z,100430.00
2023-04-20T23:24:22.333Z,100426.00
2023-04-20T23:26:49.645Z,100419.00
2023-04-20T23:29:17.225Z,100427.00
2023-04-20T23:31:44.659Z,100429.00
2023-04-20T23:34:12.097Z,100423.00
2023-04-20T23:36:40.050Z,100427.00
2023-04-20T23:39:07.531Z,100427.00
2023-04-20T23:41:34.828Z,100430.00
2023-04-20T23:44:02.158Z,100424.00
2023-04-20T23:46:29.471Z,100420.00
2023-04-20T23:48:56.748Z,100424.00
2023-04-20T23:51:24.042Z,100420.00
2023-04-20T23:53:52.029Z,100414.00
2023-04-20T23:56:19.349Z,100417.00
2023-04-20T23:58:46.678Z,100410.00
